MMUN/CUN METAR and TAF weather

Enter ICAO airport designator
Station Type Date Time Source
MMUN METAR 2019/02/18 03:47 UTC NOAA

MMUN 180347Z 14013KT 7SM SCT015TCU 26/23 A2991 RMK 8/200


Station Type Date Time Source
MMUN Decoded METAR 2019/02/18 03:47 UTC NOAA

Cancun International Airport, Mexico (MMUN) 21-02N 086-52W
Feb 17, 2019 - 10:47 PM EST / 2019.02.18 0347 UTC
Wind: from the SE (140 degrees) at 15 MPH (13 KT):0
Visibility: 7 mile(s):0
Sky conditions: partly cloudy
Weather: Towering cumulus clouds observed
Temperature: 78 F (26 C)
Dew Point: 73 F (23 C)
Relative Humidity: 83%
Pressure (altimeter): 29.91 in. Hg (1012 hPa)
ob: MMUN 180347Z 14013KT 7SM SCT015TCU 26/23 A2991 RMK 8/200
cycle: 4

Station Type Date Time Source
MMUN TAF 2019/02/17 18:14 UTC NOAA

TAF MMUN 171706Z 1718/1824 14020KT P6SM SCT020 TX27/1720Z TN24/1812Z
FM180600 14018KT P6SM SKC
FM181200 14012KT P6SM SCT015
FM181800 14020KT P6SM SKC


Example: see airport list